createdAt,value
2022-12-05T00:01:01.196Z,5.80
2022-12-05T00:06:05.224Z,5.90
2022-12-05T00:11:14.332Z,5.80
2022-12-05T00:16:20.450Z,5.80
2022-12-05T00:21:26.804Z,5.90
2022-12-05T00:26:32.384Z,5.90
2022-12-05T00:31:35.520Z,6.10
2022-12-05T00:36:38.725Z,6.10
2022-12-05T00:41:43.672Z,6.10
2022-12-05T00:46:46.564Z,6.10
2022-12-05T00:51:49.481Z,6.20
2022-12-05T00:56:56.230Z,6.10
2022-12-05T01:01:59.342Z,6.00
2022-12-05T01:07:02.235Z,6.10
2022-12-05T01:12:07.329Z,6.20
2022-12-05T01:17:11.269Z,6.30
2022-12-05T01:22:14.227Z,6.40
2022-12-05T01:27:18.906Z,6.40
2022-12-05T01:32:22.004Z,6.30
2022-12-05T01:37:25.083Z,6.30
2022-12-05T01:42:29.452Z,6.20
2022-12-05T01:47:35.925Z,6.30
2022-12-05T01:52:40.266Z,6.30
2022-12-05T01:57:46.366Z,6.30
2022-12-05T02:02:53.612Z,6.20
2022-12-05T02:07:57.908Z,6.20
2022-12-05T02:13:12.195Z,6.20
2022-12-05T02:18:28.034Z,6.30
2022-12-05T02:23:58.318Z,6.30
2022-12-05T02:29:52.510Z,6.30
2022-12-05T02:35:01.257Z,6.50
2022-12-05T02:40:10.751Z,6.30
2022-12-05T02:45:17.485Z,6.30
2022-12-05T02:50:24.770Z,6.40
2022-12-05T02:55:29.533Z,6.40
2022-12-05T03:00:33.100Z,6.30
2022-12-05T03:05:42.176Z,6.40
2022-12-05T03:10:48.286Z,6.50
2022-12-05T03:15:56.176Z,6.50
2022-12-05T03:21:03.369Z,6.50
2022-12-05T03:26:14.408Z,6.60
2022-12-05T03:31:26.664Z,6.60
2022-12-05T03:36:39.348Z,6.60
2022-12-05T03:41:50.701Z,6.50
2022-12-05T03:46:56.457Z,6.50
2022-12-05T03:52:07.337Z,6.40
2022-12-05T03:57:16.176Z,6.20
2022-12-05T04:02:26.046Z,5.80
2022-12-05T04:07:33.793Z,5.90
2022-12-05T04:12:38.649Z,6.10
2022-12-05T04:17:51.960Z,6.20
2022-12-05T04:22:58.347Z,5.90
2022-12-05T04:28:16.746Z,5.90
2022-12-05T04:33:30.340Z,6.00
2022-12-05T04:38:42.341Z,6.10
2022-12-05T04:43:48.253Z,6.30
2022-12-05T04:48:56.105Z,6.40
2022-12-05T04:54:05.525Z,6.30
2022-12-05T04:59:08.510Z,6.40
2022-12-05T05:04:17.645Z,6.20
2022-12-05T05:09:22.130Z,6.20
2022-12-05T05:14:25.855Z,6.30
2022-12-05T05:19:29.061Z,6.30
2022-12-05T05:24:33.511Z,6.20
2022-12-05T05:29:36.510Z,6.20
2022-12-05T05:34:39.471Z,5.90
2022-12-05T05:39:47.429Z,5.80
2022-12-05T05:44:52.520Z,5.80
2022-12-05T05:49:59.334Z,5.90
2022-12-05T05:55:05.204Z,5.80
2022-12-05T06:00:09.645Z,6.00
2022-12-05T06:05:12.676Z,6.10
2022-12-05T06:10:25.006Z,6.20
2022-12-05T06:15:28.094Z,6.30
2022-12-05T06:20:31.195Z,6.30
2022-12-05T06:25:35.774Z,6.50
2022-12-05T06:30:39.706Z,6.50
2022-12-05T06:35:43.225Z,6.30
2022-12-05T06:40:47.757Z,6.30
2022-12-05T06:45:50.834Z,6.30
2022-12-05T06:50:54.838Z,6.40
2022-12-05T06:56:01.392Z,6.50
2022-12-05T07:01:22.531Z,6.50
2022-12-05T07:06:25.571Z,6.30
2022-12-05T07:11:30.343Z,6.30
2022-12-05T07:16:33.735Z,6.40
2022-12-05T07:21:38.099Z,6.50
2022-12-05T07:26:42.644Z,6.60
2022-12-05T07:32:07.717Z,6.50
2022-12-05T07:37:18.203Z,6.30
2022-12-05T07:42:23.101Z,6.20
2022-12-05T07:47:32.856Z,6.10
2022-12-05T07:52:50.434Z,6.10
2022-12-05T07:57:55.040Z,6.20
2022-12-05T08:02:58.228Z,6.40
2022-12-05T08:08:01.470Z,6.30
2022-12-05T08:13:07.960Z,6.40
2022-12-05T08:18:10.914Z,6.40
2022-12-05T08:23:13.968Z,6.50
2022-12-05T08:28:18.433Z,6.60
2022-12-05T08:33:21.500Z,6.60
2022-12-05T08:38:24.593Z,6.60
2022-12-05T08:43:29.395Z,6.80
2022-12-05T08:48:33.569Z,6.90
2022-12-05T08:53:42.467Z,6.90
2022-12-05T08:58:49.053Z,6.70
2022-12-05T09:03:52.238Z,6.70
2022-12-05T09:08:57.569Z,6.90
2022-12-05T09:14:02.887Z,6.90
2022-12-05T09:19:07.105Z,7.10
2022-12-05T09:24:12.243Z,7.20
2022-12-05T09:29:20.723Z,7.20
2022-12-05T09:34:25.970Z,7.20
2022-12-05T09:39:29.463Z,7.40
2022-12-05T09:44:45.672Z,7.10
2022-12-05T09:49:52.707Z,7.20
2022-12-05T09:54:56.722Z,7.20
2022-12-05T10:00:03.645Z,7.10
2022-12-05T10:05:14.506Z,7.10
2022-12-05T10:10:31.331Z,7.00
2022-12-05T10:15:39.302Z,7.00
2022-12-05T10:20:49.722Z,7.10
2022-12-05T10:25:58.678Z,7.20
2022-12-05T10:31:09.135Z,7.60
2022-12-05T10:36:14.218Z,7.80
2022-12-05T10:41:25.510Z,8.00
2022-12-05T10:46:30.781Z,8.00
2022-12-05T10:51:37.672Z,8.00
2022-12-05T10:56:46.067Z,8.00
2022-12-05T11:01:53.366Z,8.10
2022-12-05T11:07:00.313Z,8.20
2022-12-05T11:12:18.831Z,8.30
2022-12-05T11:17:27.556Z,8.60
2022-12-05T11:22:36.053Z,8.50
2022-12-05T11:27:39.005Z,8.70
2022-12-05T11:32:43.365Z,8.60
2022-12-05T11:37:49.318Z,8.60
2022-12-05T11:43:10.054Z,8.50
2022-12-05T11:48:41.109Z,8.60
2022-12-05T11:54:41.717Z,8.50
2022-12-05T12:00:09.003Z,8.50
2022-12-05T12:05:22.256Z,8.70
2022-12-05T12:10:33.973Z,8.80
2022-12-05T12:15:51.943Z,9.00
2022-12-05T12:21:09.910Z,8.90
2022-12-05T12:26:16.529Z,8.80
2022-12-05T12:31:37.268Z,8.90
2022-12-05T12:36:48.277Z,8.70
2022-12-05T12:42:05.370Z,8.60
2022-12-05T12:47:16.416Z,8.70
2022-12-05T12:52:24.904Z,8.60
2022-12-05T12:57:35.512Z,8.50
2022-12-05T13:02:44.729Z,8.80
2022-12-05T13:08:12.456Z,8.80
2022-12-05T13:13:20.362Z,9.00
2022-12-05T13:18:25.151Z,8.90
2022-12-05T13:23:31.911Z,9.00
2022-12-05T13:28:42.067Z,8.80
2022-12-05T13:33:47.513Z,8.80
2022-12-05T13:39:16.143Z,8.80
2022-12-05T13:44:33.287Z,8.80
2022-12-05T13:49:44.486Z,8.90
2022-12-05T13:54:56.687Z,8.90
2022-12-05T14:00:06.294Z,8.80
2022-12-05T14:05:37.174Z,8.90
2022-12-05T14:11:12.217Z,9.00
2022-12-05T14:16:50.492Z,8.90
2022-12-05T14:22:00.178Z,9.00
2022-12-05T14:27:11.722Z,9.00
2022-12-05T14:32:25.296Z,8.90
2022-12-05T14:37:39.121Z,8.90
2022-12-05T14:42:45.302Z,8.90
2022-12-05T14:47:52.993Z,9.20
2022-12-05T14:53:31.315Z,9.10
2022-12-05T14:58:42.637Z,9.00
2022-12-05T15:04:18.598Z,9.00
2022-12-05T15:09:46.047Z,9.10
2022-12-05T15:15:06.476Z,9.20
2022-12-05T15:20:40.741Z,9.20
2022-12-05T15:26:23.756Z,9.50
2022-12-05T15:31:30.519Z,9.30
2022-12-05T15:36:55.110Z,9.20
2022-12-05T15:42:05.943Z,8.80
2022-12-05T15:48:12.328Z,8.70
2022-12-05T15:53:25.911Z,8.70
2022-12-05T15:58:32.745Z,8.70
2022-12-05T16:03:41.825Z,8.50
2022-12-05T16:08:47.193Z,8.40
2022-12-05T16:13:55.605Z,8.30
2022-12-05T16:19:01.022Z,8.20
2022-12-05T16:24:09.107Z,8.30
2022-12-05T16:29:28.115Z,8.50
2022-12-05T16:34:35.095Z,8.50
2022-12-05T16:39:40.780Z,8.80
2022-12-05T16:45:03.411Z,9.00
2022-12-05T16:50:23.324Z,8.90
2022-12-05T16:55:31.103Z,9.10
2022-12-05T17:00:37.359Z,9.00
2022-12-05T17:05:40.322Z,9.10
2022-12-05T17:10:44.861Z,8.90
2022-12-05T17:15:48.123Z,9.00
2022-12-05T17:20:53.371Z,9.00
2022-12-05T17:26:03.898Z,8.70
2022-12-05T17:31:11.727Z,8.70
2022-12-05T17:36:15.090Z,8.80
2022-12-05T17:41:21.262Z,8.80
2022-12-05T17:46:24.830Z,8.80
2022-12-05T17:51:28.886Z,8.80
2022-12-05T17:56:41.253Z,8.80
2022-12-05T18:01:44.205Z,8.70
2022-12-05T18:06:48.162Z,8.80
2022-12-05T18:11:52.513Z,8.80
2022-12-05T18:16:56.753Z,8.80
2022-12-05T18:21:59.793Z,8.80
2022-12-05T18:27:04.161Z,8.70
2022-12-05T18:32:07.681Z,8.70
2022-12-05T18:37:11.998Z,8.60
2022-12-05T18:42:16.316Z,8.50
2022-12-05T18:47:20.454Z,8.60
2022-12-05T18:52:23.400Z,8.60
2022-12-05T18:57:29.040Z,8.60
2022-12-05T19:02:32.058Z,8.50
2022-12-05T19:07:38.093Z,8.60
2022-12-05T19:12:43.439Z,8.60
2022-12-05T19:17:46.465Z,8.60
2022-12-05T19:22:49.522Z,8.60
2022-12-05T19:27:53.830Z,8.60
2022-12-05T19:32:57.806Z,8.60
2022-12-05T19:38:00.806Z,8.50
2022-12-05T19:43:05.440Z,8.50
2022-12-05T19:48:11.326Z,8.50
2022-12-05T19:53:14.221Z,8.40
2022-12-05T19:58:21.532Z,8.40
2022-12-05T20:03:24.452Z,8.40
2022-12-05T20:08:27.420Z,8.40
2022-12-05T20:13:48.088Z,8.30
2022-12-05T20:18:59.261Z,8.40
2022-12-05T20:24:04.949Z,8.30
2022-12-05T20:29:09.570Z,8.20
2022-12-05T20:34:15.091Z,8.30
2022-12-05T20:39:20.111Z,8.30
2022-12-05T20:44:24.400Z,8.30
2022-12-05T20:49:27.322Z,8.30
2022-12-05T20:54:30.253Z,8.30
2022-12-05T20:59:34.690Z,8.40
2022-12-05T21:04:40.465Z,8.40
2022-12-05T21:09:43.464Z,8.50
2022-12-05T21:14:52.437Z,8.40
2022-12-05T21:19:55.333Z,8.30
2022-12-05T21:24:58.275Z,8.20
2022-12-05T21:30:02.537Z,8.30
2022-12-05T21:35:06.233Z,8.30
2022-12-05T21:40:10.945Z,8.30
2022-12-05T21:45:15.637Z,8.20
2022-12-05T21:50:22.661Z,8.20
2022-12-05T21:55:25.554Z,8.20
2022-12-05T22:00:29.842Z,8.20
2022-12-05T22:05:33.177Z,8.10
2022-12-05T22:10:36.197Z,8.10
2022-12-05T22:15:40.566Z,8.20
2022-12-05T22:20:43.505Z,8.20
2022-12-05T22:25:56.746Z,8.20
2022-12-05T22:31:03.811Z,8.30
2022-12-05T22:36:08.619Z,8.20
2022-12-05T22:41:14.165Z,8.00
2022-12-05T22:46:20.081Z,7.90
2022-12-05T22:51:23.804Z,7.90
2022-12-05T22:56:28.189Z,8.00
2022-12-05T23:01:33.861Z,7.90
2022-12-05T23:06:37.759Z,7.90
2022-12-05T23:11:40.881Z,7.80
2022-12-05T23:16:45.362Z,8.00
2022-12-05T23:21:48.425Z,8.00
2022-12-05T23:26:51.434Z,7.90
2022-12-05T23:31:55.878Z,7.60
2022-12-05T23:36:58.925Z,7.50
2022-12-05T23:42:01.949Z,7.60
2022-12-05T23:47:11.440Z,7.70
2022-12-05T23:52:14.498Z,7.70
2022-12-05T23:57:18.009Z,7.80
